Grant Township, Michigan
Current Conditions -  °F | °C
As of 1:36 AM on Thursday 23 Oct 2014 (Local Time) from KPHN Reporting Station
Clear Clear  
Wind Chill: 31°   Ceiling: Unl
Heat Index: 36°   Visibility: 10mi
Dew Point: 36°   Wind: 6mph
Humidity: 100%   Direction: 310°NW
Pressure: 30.26"   Gusts: NA
Location:  43.1337°N, 82.5933°W
Report Text: KPHN 230536Z AUTO 31005KT 10SM CLR 02/02 A3026 RMK AO2
Loading
Personal Weather Stations






























Interactive Weather Map
Tropical Storm Tracking
New forecast layout! Learn more

10-Day Weather Forecast

Advertisements
Track Severe Weather on mobile